Time;durP1;ratioP1;P1;durP2;ratioP2;P2;SDS_P1;SDS_P2;PMS_P1;PMS_P2;Temp;Humidity;BMP_temperature;BMP_pressure;BME280_temperature;BME280_humidity;BME280_pressure;Samples;Min_cycle;Max_cycle;Signal;HPM_P1;HPM_P2
2021/07/29 00:00:30;;;;;;;19.70;14.80;;;;;;;;;;5052086;28;20043;-67
2021/07/29 00:02:56;;;;;;;22.48;13.85;;;;;;;;;;5034292;28;20497;-67
2021/07/29 00:05:22;;;;;;;20.70;15.60;;;;;;;;;;5051645;28;20039;-68
2021/07/29 00:07:52;;;;;;;23.25;13.95;;;;;;;;;;5034203;28;20538;-68
2021/07/29 00:10:18;;;;;;;19.48;14.50;;;;;;;;;;5051918;28;20021;-67
2021/07/29 00:12:44;;;;;;;19.52;13.52;;;;;;;;;;5033934;28;20025;-66
2021/07/29 00:15:12;;;;;;;23.15;13.95;;;;;;;;;;5033591;28;20116;-67
2021/07/29 00:20:14;;;;;;;20.77;14.55;;;;;;;;;;5051866;28;20101;-67
2021/07/29 00:22:41;;;;;;;20.38;14.10;;;;;;;;;;5051787;28;20021;-66
2021/07/29 00:25:11;;;;;;;19.45;15.32;;;;;;;;;;5051385;28;20036;-65
2021/07/29 00:27:37;;;;;;;20.80;14.63;;;;;;;;;;5033678;28;20033;-67
2021/07/29 00:30:04;;;;;;;21.05;15.35;;;;;;;;;;5033689;28;20493;-67
2021/07/29 00:32:30;;;;;;;19.52;14.15;;;;;;;;;;5051599;28;20439;-66
2021/07/29 00:34:57;;;;;;;20.80;14.32;;;;;;;;;;5033634;28;20021;-66
2021/07/29 00:37:23;;;;;;;23.65;15.13;;;;;;;;;;5051179;28;20079;-66
2021/07/29 00:39:49;;;;;;;21.92;15.20;;;;;;;;;;5033947;28;20025;-66
2021/07/29 00:42:14;;;;;;;21.08;14.90;;;;;;;;;;5032964;28;20393;-66
2021/07/29 00:44:41;;;;;;;20.48;15.60;;;;;;;;;;5051200;28;20032;-67
2021/07/29 00:47:07;;;;;;;19.77;13.45;;;;;;;;;;5033355;28;20033;-66
2021/07/29 00:49:36;;;;;;;21.83;14.52;;;;;;;;;;5033336;28;20400;-66
2021/07/29 00:52:02;;;;;;;21.30;13.50;;;;;;;;;;5051105;28;20017;-67
2021/07/29 00:54:29;;;;;;;19.80;14.23;;;;;;;;;;5033211;28;20488;-66
2021/07/29 00:56:56;;;;;;;21.88;13.35;;;;;;;;;;5033054;28;20029;-67
2021/07/29 00:59:23;;;;;;;19.73;12.70;;;;;;;;;;5050755;28;20032;-66
2021/07/29 01:01:48;;;;;;;20.30;12.32;;;;;;;;;;5016779;28;20082;-67
2021/07/29 01:04:14;;;;;;;20.50;11.98;;;;;;;;;;5050920;28;20029;-67
2021/07/29 01:06:40;;;;;;;19.38;12.57;;;;;;;;;;5032625;28;20021;-67
2021/07/29 01:09:10;;;;;;;20.05;12.00;;;;;;;;;;5032825;28;20498;-67
2021/07/29 01:11:37;;;;;;;17.70;11.75;;;;;;;;;;5050718;28;20045;-67
2021/07/29 01:14:03;;;;;;;18.92;11.65;;;;;;;;;;5050919;28;20471;-67
2021/07/29 01:16:29;;;;;;;18.67;11.55;;;;;;;;;;5032639;28;20063;-67
2021/07/29 01:18:55;;;;;;;19.20;11.15;;;;;;;;;;5032765;28;20053;-67
2021/07/29 01:21:22;;;;;;;19.35;11.25;;;;;;;;;;5032872;28;20078;-67
2021/07/29 01:23:47;;;;;;;19.80;10.45;;;;;;;;;;5032746;28;20029;-67
2021/07/29 01:26:13;;;;;;;18.85;9.57;;;;;;;;;;5032627;28;20028;-67
2021/07/29 01:28:39;;;;;;;18.00;10.43;;;;;;;;;;5032763;28;20068;-67
2021/07/29 01:31:05;;;;;;;19.58;10.63;;;;;;;;;;5032825;28;20029;-67
2021/07/29 01:33:32;;;;;;;18.25;10.00;;;;;;;;;;5050736;28;20033;-67
2021/07/29 01:35:58;;;;;;;17.40;9.73;;;;;;;;;;5050440;28;20086;-66
2021/07/29 01:38:24;;;;;;;18.27;10.10;;;;;;;;;;5032850;28;20040;-68
2021/07/29 01:40:50;;;;;;;17.65;9.50;;;;;;;;;;5032519;28;20106;-67
2021/07/29 01:43:15;;;;;;;20.38;9.82;;;;;;;;;;5050535;28;20473;-66
2021/07/29 01:45:41;;;;;;;19.25;8.95;;;;;;;;;;5050154;28;20040;-67
2021/07/29 01:48:07;;;;;;;16.80;9.07;;;;;;;;;;5050331;28;20112;-67
2021/07/29 01:50:33;;;;;;;17.58;8.88;;;;;;;;;;5050261;28;20021;-67
2021/07/29 01:52:59;;;;;;;19.13;9.10;;;;;;;;;;5032687;28;20481;-67
2021/07/29 01:55:25;;;;;;;16.13;9.02;;;;;;;;;;5032131;28;20043;-67
2021/07/29 01:57:51;;;;;;;17.63;9.27;;;;;;;;;;5032774;28;20477;-67
2021/07/29 02:00:17;;;;;;;19.20;9.02;;;;;;;;;;5032540;28;20416;-67
2021/07/29 02:02:43;;;;;;;18.67;8.48;;;;;;;;;;5032437;28;20025;-67
2021/07/29 02:05:09;;;;;;;18.13;8.57;;;;;;;;;;5050068;28;20021;-67
2021/07/29 02:07:35;;;;;;;20.17;9.23;;;;;;;;;;5050341;28;20028;-66
2021/07/29 02:10:01;;;;;;;15.75;8.18;;;;;;;;;;5049936;28;20176;-67
2021/07/29 02:12:27;;;;;;;17.95;8.77;;;;;;;;;;5050225;28;20036;-67
2021/07/29 02:14:53;;;;;;;22.65;8.38;;;;;;;;;;5050172;28;20428;-68
2021/07/29 02:17:20;;;;;;;17.02;8.32;;;;;;;;;;5032529;28;20021;-67
2021/07/29 02:19:46;;;;;;;15.35;8.10;;;;;;;;;;5035991;28;20056;-67
2021/07/29 02:22:12;;;;;;;16.65;8.57;;;;;;;;;;5053909;28;20648;-67
2021/07/29 02:24:38;;;;;;;19.67;8.55;;;;;;;;;;5053695;28;20104;-67
2021/07/29 02:27:04;;;;;;;16.02;8.50;;;;;;;;;;5035919;28;20029;-67
2021/07/29 02:29:30;;;;;;;17.48;8.20;;;;;;;;;;5035747;28;20025;-66
2021/07/29 02:31:56;;;;;;;15.98;8.20;;;;;;;;;;5035908;28;20025;-67
2021/07/29 02:34:22;;;;;;;16.20;8.40;;;;;;;;;;5036090;28;20032;-67
2021/07/29 02:36:49;;;;;;;17.13;8.77;;;;;;;;;;5035680;28;20021;-66
2021/07/29 02:39:15;;;;;;;15.70;8.30;;;;;;;;;;5053547;28;20112;-68
2021/07/29 02:41:41;;;;;;;18.23;8.32;;;;;;;;;;5053743;28;20063;-68
2021/07/29 02:44:08;;;;;;;24.40;9.13;;;;;;;;;;5053450;28;20454;-68
2021/07/29 02:46:34;;;;;;;16.92;8.07;;;;;;;;;;5053101;28;20061;-69
2021/07/29 02:49:00;;;;;;;17.58;9.18;;;;;;;;;;5035575;28;20083;-68
2021/07/29 02:51:26;;;;;;;19.25;9.07;;;;;;;;;;5035428;28;20028;-67
2021/07/29 02:53:52;;;;;;;15.68;7.90;;;;;;;;;;5035491;28;20397;-68
2021/07/29 02:56:18;;;;;;;16.90;8.98;;;;;;;;;;5035182;28;20389;-68
2021/07/29 02:58:47;;;;;;;16.90;8.60;;;;;;;;;;5053122;28;20028;-68
2021/07/29 03:01:13;;;;;;;17.63;8.75;;;;;;;;;;5053145;28;20042;-68
2021/07/29 03:03:39;;;;;;;18.55;8.60;;;;;;;;;;5035454;28;20396;-67
2021/07/29 03:06:05;;;;;;;19.52;8.35;;;;;;;;;;5035230;28;20035;-67
2021/07/29 03:08:31;;;;;;;16.70;8.27;;;;;;;;;;5052697;28;20498;-68
2021/07/29 03:10:58;;;;;;;16.13;8.52;;;;;;;;;;5052858;28;20047;-68
2021/07/29 03:13:25;;;;;;;18.65;8.68;;;;;;;;;;5053070;28;20094;-68
2021/07/29 03:15:51;;;;;;;16.02;8.13;;;;;;;;;;5052670;28;20035;-67
2021/07/29 03:18:17;;;;;;;17.35;7.75;;;;;;;;;;5053001;28;20028;-67
2021/07/29 03:20:43;;;;;;;16.63;8.57;;;;;;;;;;5052625;28;20025;-67
2021/07/29 03:23:10;;;;;;;18.38;8.10;;;;;;;;;;5052426;28;20059;-67
2021/07/29 03:25:36;;;;;;;16.83;8.20;;;;;;;;;;5052617;28;20396;-67
2021/07/29 03:28:03;;;;;;;15.88;8.18;;;;;;;;;;5034717;28;20029;-67
2021/07/29 03:30:29;;;;;;;16.77;8.10;;;;;;;;;;5034723;28;20021;-67
2021/07/29 03:32:55;;;;;;;18.92;9.15;;;;;;;;;;5034502;28;20078;-66
2021/07/29 03:35:21;;;;;;;15.75;7.80;;;;;;;;;;5034466;28;20033;-67
2021/07/29 03:37:47;;;;;;;17.58;7.90;;;;;;;;;;5052386;28;20028;-67
2021/07/29 03:40:13;;;;;;;19.70;7.90;;;;;;;;;;5034741;28;20454;-67
2021/07/29 03:42:39;;;;;;;17.02;7.82;;;;;;;;;;5034409;28;20021;-67
2021/07/29 03:45:05;;;;;;;17.35;8.02;;;;;;;;;;5034313;28;20500;-67
2021/07/29 03:47:31;;;;;;;19.60;7.95;;;;;;;;;;5052133;28;20451;-67
2021/07/29 03:49:57;;;;;;;16.20;7.72;;;;;;;;;;5051987;28;20087;-67
2021/07/29 03:52:23;;;;;;;19.60;7.72;;;;;;;;;;5052259;28;20029;-67
2021/07/29 03:54:52;;;;;;;17.70;7.63;;;;;;;;;;5034213;28;20029;-67
2021/07/29 03:57:19;;;;;;;15.68;7.80;;;;;;;;;;5051585;28;20028;-68
2021/07/29 03:59:45;;;;;;;19.35;8.10;;;;;;;;;;5033732;28;20040;-67
2021/07/29 04:02:11;;;;;;;17.50;8.15;;;;;;;;;;5052088;28;20127;-67
2021/07/29 04:04:38;;;;;;;16.85;7.72;;;;;;;;;;5051970;28;20533;-67
2021/07/29 04:07:04;;;;;;;19.13;7.97;;;;;;;;;;5051781;28;20024;-67
2021/07/29 04:09:30;;;;;;;18.42;8.05;;;;;;;;;;5051634;28;20029;-67
2021/07/29 04:11:57;;;;;;;18.80;7.60;;;;;;;;;;5033739;28;20053;-67
2021/07/29 04:14:23;;;;;;;17.80;8.75;;;;;;;;;;5051643;28;20492;-67
2021/07/29 04:16:52;;;;;;;17.30;7.82;;;;;;;;;;5051451;28;20032;-66
2021/07/29 04:19:18;;;;;;;17.92;7.80;;;;;;;;;;5051395;28;20056;-67
2021/07/29 04:21:44;;;;;;;16.10;8.23;;;;;;;;;;5051698;28;20017;-67
2021/07/29 04:24:10;;;;;;;18.88;8.05;;;;;;;;;;5051757;28;20537;-67
2021/07/29 04:26:37;;;;;;;19.17;8.68;;;;;;;;;;5033835;28;20079;-65
2021/07/29 04:29:03;;;;;;;18.67;8.63;;;;;;;;;;5051396;28;20031;-66
2021/07/29 04:31:29;;;;;;;17.30;8.55;;;;;;;;;;5051277;28;20033;-66
2021/07/29 04:33:55;;;;;;;19.92;9.10;;;;;;;;;;5033411;28;20028;-66
2021/07/29 04:36:22;;;;;;;17.38;8.80;;;;;;;;;;5033517;28;20464;-68
2021/07/29 04:38:48;;;;;;;19.80;8.38;;;;;;;;;;5051164;28;20057;-66
2021/07/29 04:41:14;;;;;;;18.73;8.82;;;;;;;;;;5050621;28;20095;-67
2021/07/29 04:43:40;;;;;;;16.75;8.13;;;;;;;;;;5033596;28;20028;-66
2021/07/29 04:46:06;;;;;;;17.42;8.32;;;;;;;;;;5050848;28;20393;-67
2021/07/29 04:48:32;;;;;;;17.15;7.97;;;;;;;;;;5033266;28;20033;-66
2021/07/29 04:51:02;;;;;;;19.15;8.18;;;;;;;;;;5050942;28;20774;-67
2021/07/29 04:53:28;;;;;;;20.25;8.95;;;;;;;;;;5030144;28;20021;-67
2021/07/29 04:55:54;;;;;;;18.95;9.25;;;;;;;;;;5033074;28;20048;-66
2021/07/29 04:58:19;;;;;;;16.73;7.68;;;;;;;;;;5051337;28;20028;-66
2021/07/29 05:00:45;;;;;;;18.50;8.07;;;;;;;;;;5056949;23;20041;-61
2021/07/29 05:03:11;;;;;;;16.33;8.80;;;;;;;;;;5052134;28;20025;-63
2021/07/29 05:05:37;;;;;;;18.58;8.95;;;;;;;;;;5034000;28;20025;-64
2021/07/29 05:08:03;;;;;;;19.33;8.48;;;;;;;;;;5033962;28;20021;-64
2021/07/29 05:10:29;;;;;;;17.48;8.73;;;;;;;;;;5034230;28;20021;-65
2021/07/29 05:12:55;;;;;;;17.33;8.48;;;;;;;;;;5034006;28;20027;-64
2021/07/29 05:15:22;;;;;;;15.93;7.90;;;;;;;;;;5033989;28;20032;-63
2021/07/29 05:17:54;;;;;;;20.08;8.57;;;;;;;;;;5034292;28;20024;-63
2021/07/29 05:20:20;;;;;;;19.95;8.52;;;;;;;;;;5034062;28;20104;-63
2021/07/29 05:22:46;;;;;;;16.83;8.57;;;;;;;;;;5052076;28;20436;-63
2021/07/29 05:25:12;;;;;;;18.70;8.65;;;;;;;;;;5051019;28;20025;-63
2021/07/29 05:27:39;;;;;;;18.42;8.07;;;;;;;;;;5024467;28;20029;-63
2021/07/29 05:30:05;;;;;;;19.00;8.30;;;;;;;;;;5014034;28;20026;-62
2021/07/29 05:32:32;;;;;;;20.00;8.65;;;;;;;;;;5032216;28;20033;-62
2021/07/29 05:34:58;;;;;;;18.42;8.40;;;;;;;;;;5014096;28;20083;-63
2021/07/29 05:37:24;;;;;;;18.38;8.10;;;;;;;;;;5014235;28;20477;-62
2021/07/29 05:39:50;;;;;;;20.98;8.40;;;;;;;;;;5014165;28;20120;-62
2021/07/29 05:42:21;;;;;;;16.52;7.95;;;;;;;;;;5031775;28;20104;-62
2021/07/29 05:44:47;;;;;;;17.80;8.48;;;;;;;;;;5032205;28;20512;-62
2021/07/29 05:47:13;;;;;;;18.33;8.77;;;;;;;;;;5013879;28;20128;-63
2021/07/29 05:49:39;;;;;;;18.65;8.70;;;;;;;;;;5031867;28;20101;-63
2021/07/29 05:52:05;;;;;;;21.02;9.15;;;;;;;;;;5013927;28;20405;-63
2021/07/29 05:54:31;;;;;;;17.58;8.73;;;;;;;;;;5035033;28;20481;-61
2021/07/29 05:56:57;;;;;;;17.80;7.88;;;;;;;;;;5017987;28;20033;-62
2021/07/29 05:59:23;;;;;;;19.83;8.30;;;;;;;;;;5035751;28;20025;-62
2021/07/29 06:01:50;;;;;;;18.88;8.80;;;;;;;;;;5017429;28;20049;-63
2021/07/29 06:04:15;;;;;;;16.88;8.80;;;;;;;;;;5017845;28;20069;-63
2021/07/29 06:06:41;;;;;;;21.38;9.07;;;;;;;;;;5017377;28;20068;-61
2021/07/29 06:09:07;;;;;;;17.33;8.77;;;;;;;;;;5017420;28;20026;-62
2021/07/29 06:11:33;;;;;;;21.48;9.20;;;;;;;;;;5017496;28;20048;-62
2021/07/29 06:14:00;;;;;;;17.85;9.02;;;;;;;;;;5017647;28;20018;-62
2021/07/29 06:16:26;;;;;;;17.98;9.40;;;;;;;;;;5035367;28;20544;-63
2021/07/29 06:19:04;;;;;;;17.38;9.20;;;;;;;;;;5019265;28;20060;-63
2021/07/29 06:21:31;;;;;;;19.58;9.75;;;;;;;;;;5019675;28;20040;-62
2021/07/29 06:23:57;;;;;;;20.13;9.80;;;;;;;;;;5038386;28;20144;-63
2021/07/29 06:26:23;;;;;;;18.50;9.70;;;;;;;;;;5017248;28;20049;-63
2021/07/29 06:28:49;;;;;;;21.70;9.90;;;;;;;;;;5030927;28;20032;-64
2021/07/29 06:31:15;;;;;;;19.60;9.48;;;;;;;;;;5036075;28;20033;-64
2021/07/29 06:33:41;;;;;;;20.63;9.70;;;;;;;;;;5049324;28;20032;-64
2021/07/29 06:36:07;;;;;;;19.83;8.98;;;;;;;;;;5017322;28;20080;-63
2021/07/29 06:38:33;;;;;;;19.85;9.95;;;;;;;;;;5034744;28;20029;-63
2021/07/29 06:40:59;;;;;;;20.40;10.27;;;;;;;;;;5016379;28;20103;-61
2021/07/29 06:43:25;;;;;;;20.00;10.13;;;;;;;;;;5016979;28;20037;-61
2021/07/29 06:45:51;;;;;;;24.83;9.60;;;;;;;;;;5034249;28;20079;-62
2021/07/29 06:48:18;;;;;;;18.17;9.45;;;;;;;;;;5034511;28;20393;-62
2021/07/29 06:50:47;;;;;;;19.10;9.65;;;;;;;;;;5016754;28;20026;-61
2021/07/29 06:53:13;;;;;;;17.25;9.15;;;;;;;;;;5034470;28;20097;-62
2021/07/29 06:55:39;;;;;;;19.65;9.88;;;;;;;;;;5022818;28;20025;-62
2021/07/29 06:58:05;;;;;;;19.05;9.40;;;;;;;;;;4996985;28;20075;-62
2021/07/29 07:00:31;;;;;;;16.85;9.18;;;;;;;;;;5014410;28;20085;-62
2021/07/29 07:02:57;;;;;;;17.75;9.32;;;;;;;;;;5014667;28;20515;-62
2021/07/29 07:05:23;;;;;;;20.33;10.05;;;;;;;;;;4996288;28;20026;-62
2021/07/29 07:07:49;;;;;;;19.40;10.32;;;;;;;;;;5014637;28;20093;-65
2021/07/29 07:10:15;;;;;;;17.45;9.88;;;;;;;;;;5030890;28;20520;-65
2021/07/29 07:12:41;;;;;;;18.05;10.10;;;;;;;;;;5034390;28;20025;-65
2021/07/29 07:15:07;;;;;;;21.02;8.93;;;;;;;;;;5016401;28;20025;-63
2021/07/29 07:17:33;;;;;;;18.95;9.60;;;;;;;;;;5016360;28;20075;-63
2021/07/29 07:20:01;;;;;;;23.30;10.25;;;;;;;;;;5034218;28;20382;-65
2021/07/29 07:22:27;;;;;;;19.58;9.60;;;;;;;;;;5032032;28;20021;-64
2021/07/29 07:24:53;;;;;;;21.73;9.80;;;;;;;;;;5016662;28;20107;-65
2021/07/29 07:27:19;;;;;;;19.13;9.30;;;;;;;;;;5016784;28;20116;-65
2021/07/29 07:29:45;;;;;;;20.48;9.80;;;;;;;;;;5016786;28;20064;-65
2021/07/29 07:32:11;;;;;;;18.27;9.40;;;;;;;;;;5034684;28;20481;-64
2021/07/29 07:34:37;;;;;;;20.10;9.63;;;;;;;;;;5034429;28;20104;-64
2021/07/29 07:37:03;;;;;;;19.73;10.48;;;;;;;;;;5034295;28;20025;-64
2021/07/29 07:39:29;;;;;;;16.35;10.25;;;;;;;;;;5016494;28;20033;-65
2021/07/29 07:41:56;;;;;;;22.10;11.77;;;;;;;;;;5034268;28;20155;-65
2021/07/29 07:44:22;;;;;;;18.52;10.20;;;;;;;;;;5015503;28;20136;-64
2021/07/29 07:46:48;;;;;;;17.55;10.55;;;;;;;;;;5033207;28;20057;-64
2021/07/29 07:49:14;;;;;;;16.48;9.45;;;;;;;;;;5015355;28;20049;-64
2021/07/29 07:51:42;;;;;;;17.90;9.95;;;;;;;;;;5015552;28;20436;-64
2021/07/29 07:54:12;;;;;;;16.05;10.07;;;;;;;;;;5014214;28;20049;-64
2021/07/29 07:56:43;;;;;;;19.88;10.15;;;;;;;;;;5031835;28;20022;-64
2021/07/29 07:59:09;;;;;;;17.80;11.02;;;;;;;;;;5031530;28;20083;-64
2021/07/29 08:01:37;;;;;;;16.52;11.18;;;;;;;;;;5032754;28;20521;-63
2021/07/29 08:04:03;;;;;;;18.45;10.80;;;;;;;;;;5032304;28;20034;-63
2021/07/29 08:06:29;;;;;;;16.40;10.40;;;;;;;;;;5032516;28;20671;-65
2021/07/29 08:08:55;;;;;;;16.48;10.10;;;;;;;;;;5032642;28;20026;-65
2021/07/29 08:11:21;;;;;;;17.75;10.68;;;;;;;;;;5031402;28;20432;-64
2021/07/29 08:13:47;;;;;;;19.20;11.00;;;;;;;;;;5031142;28;20025;-64
2021/07/29 08:16:13;;;;;;;18.05;10.55;;;;;;;;;;5031803;28;20029;-64
2021/07/29 08:18:39;;;;;;;17.42;10.48;;;;;;;;;;5032658;28;20482;-63
2021/07/29 08:21:09;;;;;;;18.13;10.35;;;;;;;;;;5032669;28;20112;-64
2021/07/29 08:23:36;;;;;;;18.35;10.80;;;;;;;;;;5030774;28;20052;-64
2021/07/29 08:26:02;;;;;;;20.63;11.02;;;;;;;;;;5032079;28;20043;-64
2021/07/29 08:28:27;;;;;;;19.77;10.50;;;;;;;;;;5032366;28;20025;-63
2021/07/29 08:30:53;;;;;;;29.08;11.52;;;;;;;;;;5032481;28;20470;-64
2021/07/29 08:33:19;;;;;;;19.02;11.02;;;;;;;;;;5032219;28;20462;-65
2021/07/29 08:35:45;;;;;;;18.63;10.45;;;;;;;;;;5032127;28;20072;-66
2021/07/29 08:38:11;;;;;;;18.70;10.50;;;;;;;;;;5030907;28;20022;-62
2021/07/29 08:40:37;;;;;;;19.80;10.50;;;;;;;;;;5030891;28;20036;-62
2021/07/29 08:43:04;;;;;;;17.52;9.90;;;;;;;;;;5031064;28;20430;-62
2021/07/29 08:45:31;;;;;;;15.98;9.88;;;;;;;;;;5031936;28;20092;-62
2021/07/29 08:47:57;;;;;;;16.08;10.20;;;;;;;;;;5031776;28;20490;-62
2021/07/29 08:50:23;;;;;;;16.38;10.52;;;;;;;;;;5032074;28;20394;-61
2021/07/29 08:52:50;;;;;;;17.95;10.00;;;;;;;;;;5031953;28;20063;-62
2021/07/29 08:55:16;;;;;;;16.23;9.88;;;;;;;;;;5031887;28;20022;-62
2021/07/29 08:57:44;;;;;;;18.42;10.80;;;;;;;;;;5032015;28;20040;-62
2021/07/29 09:00:11;;;;;;;18.02;10.10;;;;;;;;;;5031577;28;20021;-62
2021/07/29 09:02:37;;;;;;;18.45;10.48;;;;;;;;;;5014093;28;20392;-62
2021/07/29 09:05:15;;;;;;;19.50;10.45;;;;;;;;;;5031852;28;20108;-62
2021/07/29 09:07:42;;;;;;;18.55;11.05;;;;;;;;;;5031873;28;20033;-62
2021/07/29 09:10:20;;;;;;;16.50;10.80;;;;;;;;;;5031127;28;20025;-62
2021/07/29 09:12:46;;;;;;;;;;;;;;;;;;5031747;28;20385;-63
2021/07/29 09:15:21;;;;;;;20.63;10.80;;;;;;;;;;5031255;28;19911;-62
2021/07/29 09:17:47;;;;;;;19.58;10.63;;;;;;;;;;5031514;28;20059;-62
2021/07/29 09:20:20;;;;;;;22.45;10.43;;;;;;;;;;5013729;28;20037;-62
2021/07/29 09:22:53;;;;;;;19.27;10.15;;;;;;;;;;5031354;28;20105;-62
2021/07/29 09:25:20;;;;;;;16.42;9.93;;;;;;;;;;5031311;28;20036;-62
2021/07/29 09:27:50;;;;;;;21.30;11.35;;;;;;;;;;5031583;28;20093;-63
2021/07/29 09:30:19;;;;;;;20.75;11.20;;;;;;;;;;5013643;28;20033;-63
2021/07/29 09:32:59;;;;;;;18.67;10.43;;;;;;;;;;5031434;28;20034;-62
2021/07/29 09:35:45;;;;;;;16.00;10.45;;;;;;;;;;5030969;28;20066;-62
2021/07/29 09:38:20;;;;;;;17.80;10.82;;;;;;;;;;5031093;28;20116;-63
2021/07/29 09:40:46;;;;;;;23.42;11.60;;;;;;;;;;5031151;28;20028;-63
2021/07/29 09:43:14;;;;;;;19.48;10.80;;;;;;;;;;5031489;28;20029;-62
2021/07/29 09:45:41;;;;;;;16.70;10.65;;;;;;;;;;5031457;28;20067;-63
2021/07/29 09:48:07;;;;;;;16.02;10.88;;;;;;;;;;5031677;28;20052;-63
2021/07/29 09:50:34;;;;;;;20.05;10.85;;;;;;;;;;5030817;28;20124;-61
2021/07/29 09:53:00;;;;;;;20.15;11.63;;;;;;;;;;5013622;28;20043;-63
2021/07/29 09:55:28;;;;;;;17.80;11.15;;;;;;;;;;5030787;28;20029;-63
2021/07/29 09:57:54;;;;;;;17.55;11.38;;;;;;;;;;5030968;28;20029;-62
2021/07/29 10:00:20;;;;;;;20.45;11.80;;;;;;;;;;5030622;28;20113;-63
2021/07/29 10:02:47;;;;;;;18.15;11.40;;;;;;;;;;5012580;28;20045;-63
2021/07/29 10:05:18;;;;;;;20.65;12.20;;;;;;;;;;5013333;28;20057;-62
2021/07/29 10:07:48;;;;;;;18.42;11.27;;;;;;;;;;5031255;28;20026;-63
2021/07/29 10:10:21;;;;;;;17.80;10.95;;;;;;;;;;5030826;28;20032;-62
2021/07/29 10:12:51;;;;;;;19.13;11.63;;;;;;;;;;5013730;28;20021;-63
2021/07/29 10:15:36;;;;;;;17.17;11.20;;;;;;;;;;5013638;28;20026;-62
2021/07/29 10:18:02;;;;;;;18.75;11.73;;;;;;;;;;5031057;28;20120;-62
2021/07/29 10:20:32;;;;;;;20.15;11.90;;;;;;;;;;5013264;28;20108;-62
2021/07/29 10:23:13;;;;;;;18.98;11.63;;;;;;;;;;5031146;28;20078;-62
2021/07/29 10:25:54;;;;;;;21.15;11.45;;;;;;;;;;5030524;28;20032;-61
2021/07/29 10:28:24;;;;;;;19.05;12.02;;;;;;;;;;5030972;28;20025;-63
2021/07/29 10:30:57;;;;;;;16.83;11.35;;;;;;;;;;5012883;28;20030;-63
2021/07/29 10:33:24;;;;;;;19.73;11.63;;;;;;;;;;5013086;28;20045;-63
2021/07/29 10:35:50;;;;;;;20.10;11.38;;;;;;;;;;5030570;28;20056;-63
2021/07/29 10:38:35;;;;;;;17.60;11.43;;;;;;;;;;5030713;28;20021;-62
2021/07/29 10:41:05;;;;;;;19.42;11.80;;;;;;;;;;5034131;28;20029;-62
2021/07/29 10:43:31;;;;;;;19.77;11.93;;;;;;;;;;5034418;28;20013;-62
2021/07/29 10:45:58;;;;;;;24.60;12.35;;;;;;;;;;5016166;28;20037;-62
2021/07/29 10:48:46;;;;;;;19.20;12.00;;;;;;;;;;5034414;28;20393;-62
2021/07/29 10:51:16;;;;;;;22.40;12.07;;;;;;;;;;5033660;28;20017;-63
2021/07/29 10:53:43;;;;;;;18.80;12.13;;;;;;;;;;5034027;28;20047;-62
2021/07/29 10:56:11;;;;;;;18.48;12.05;;;;;;;;;;5015503;28;20075;-63
2021/07/29 10:58:40;;;;;;;18.88;11.90;;;;;;;;;;5016290;28;20063;-63
2021/07/29 11:01:07;;;;;;;18.30;11.68;;;;;;;;;;5044775;22;20083;-63
2021/07/29 11:03:33;;;;;;;19.92;12.30;;;;;;;;;;5053623;28;20037;-62
2021/07/29 11:06:06;;;;;;;17.67;11.65;;;;;;;;;;5035552;28;20137;-64
2021/07/29 11:08:32;;;;;;;20.02;11.00;;;;;;;;;;5053844;28;20028;-63
2021/07/29 11:10:59;;;;;;;19.67;11.90;;;;;;;;;;5053799;28;20033;-64
2021/07/29 11:13:28;;;;;;;22.42;12.20;;;;;;;;;;5037322;28;20025;-63
2021/07/29 11:15:54;;;;;;;;;;;;;;;;;;5055648;28;20481;-64
2021/07/29 11:18:21;;;;;;;18.08;11.82;;;;;;;;;;5055531;28;20310;-61
2021/07/29 11:20:47;;;;;;;21.13;11.27;;;;;;;;;;5055440;28;20095;-64
2021/07/29 11:23:16;;;;;;;19.50;11.23;;;;;;;;;;5055464;28;20029;-64
2021/07/29 11:25:55;;;;;;;18.77;11.05;;;;;;;;;;5055179;28;20029;-64
2021/07/29 11:28:21;;;;;;;17.15;10.82;;;;;;;;;;5054461;28;20024;-63
2021/07/29 11:30:47;;;;;;;18.58;11.35;;;;;;;;;;5053442;28;20092;-64
2021/07/29 11:33:20;;;;;;;18.13;11.50;;;;;;;;;;5053694;28;20027;-64
2021/07/29 11:35:46;;;;;;;19.63;11.60;;;;;;;;;;5052946;28;20049;-63
2021/07/29 11:38:17;;;;;;;18.02;10.70;;;;;;;;;;5034959;28;20500;-63
2021/07/29 11:40:43;;;;;;;17.80;10.88;;;;;;;;;;5053407;28;20028;-63
2021/07/29 11:43:22;;;;;;;17.92;11.18;;;;;;;;;;5034947;28;20032;-62
2021/07/29 11:45:48;;;;;;;19.27;11.25;;;;;;;;;;5035011;28;20453;-64
2021/07/29 11:48:23;;;;;;;18.77;11.52;;;;;;;;;;5035282;28;20511;-65
2021/07/29 11:50:50;;;;;;;20.17;11.00;;;;;;;;;;5051946;28;20025;-62
2021/07/29 11:53:17;;;;;;;17.48;10.95;;;;;;;;;;5052861;28;20485;-61
2021/07/29 11:55:52;;;;;;;18.83;10.90;;;;;;;;;;5052605;28;20025;-63
2021/07/29 11:58:18;;;;;;;17.45;10.82;;;;;;;;;;5034949;28;20485;-64
2021/07/29 12:00:46;;;;;;;18.67;11.55;;;;;;;;;;5035278;28;20186;-63
2021/07/29 12:03:13;;;;;;;22.75;11.68;;;;;;;;;;5052911;28;20035;-62
2021/07/29 12:05:42;;;;;;;19.00;11.15;;;;;;;;;;5052725;28;20436;-63
2021/07/29 12:08:07;;;;;;;;;;;;;;;;;;5053227;28;20021;-64
2021/07/29 12:10:35;;;;;;;18.45;11.38;;;;;;;;;;5034700;28;19995;-64
2021/07/29 12:13:02;;;;;;;18.58;11.20;;;;;;;;;;5049932;28;20090;-64
2021/07/29 12:15:28;;;;;;;17.35;11.45;;;;;;;;;;5053350;28;20025;-61
2021/07/29 12:18:13;;;;;;;20.38;11.45;;;;;;;;;;5053724;28;20155;-62
2021/07/29 12:20:43;;;;;;;18.30;11.15;;;;;;;;;;5053375;28;20017;-64
2021/07/29 12:23:09;;;;;;;16.67;10.85;;;;;;;;;;5052685;28;20127;-66
2021/07/29 12:25:35;;;;;;;18.98;10.88;;;;;;;;;;5052203;28;20374;-65
2021/07/29 12:28:01;;;;;;;16.70;10.38;;;;;;;;;;5052304;28;20119;-66
2021/07/29 12:30:28;;;;;;;18.48;10.82;;;;;;;;;;5034388;28;20111;-64
2021/07/29 12:33:06;;;;;;;17.10;10.50;;;;;;;;;;5052006;28;20067;-62
2021/07/29 12:35:32;;;;;;;18.73;11.30;;;;;;;;;;5033805;28;20040;-62
2021/07/29 12:37:58;;;;;;;17.23;10.93;;;;;;;;;;5052076;28;20051;-63
2021/07/29 12:40:25;;;;;;;20.65;10.75;;;;;;;;;;5051764;28;20115;-62
2021/07/29 12:42:51;;;;;;;16.95;10.52;;;;;;;;;;5051908;28;20035;-63
2021/07/29 12:45:17;;;;;;;19.52;11.25;;;;;;;;;;5051716;28;20025;-61
2021/07/29 12:48:02;;;;;;;19.83;11.48;;;;;;;;;;5034033;28;20116;-62
2021/07/29 12:50:40;;;;;;;18.58;11.90;;;;;;;;;;5051785;28;20444;-63
2021/07/29 12:53:06;;;;;;;;;;;;;;;;;;5051640;28;20108;-61
2021/07/29 12:55:37;;;;;;;18.48;11.70;;;;;;;;;;5051254;28;19959;-62
2021/07/29 12:58:03;;;;;;;18.52;11.25;;;;;;;;;;5051481;28;20013;-63
2021/07/29 13:00:29;;;;;;;17.75;10.95;;;;;;;;;;5033057;28;20025;-62
2021/07/29 13:02:55;;;;;;;20.95;11.25;;;;;;;;;;5032990;28;20051;-64
2021/07/29 13:05:21;;;;;;;18.70;11.35;;;;;;;;;;5033616;28;20021;-65
2021/07/29 13:07:52;;;;;;;16.73;11.00;;;;;;;;;;5051209;28;20021;-63
2021/07/29 13:10:19;;;;;;;17.17;11.00;;;;;;;;;;5051072;28;20029;-60
2021/07/29 13:12:46;;;;;;;17.23;11.02;;;;;;;;;;5051544;28;20478;-63
2021/07/29 13:15:13;;;;;;;17.67;11.70;;;;;;;;;;5051903;28;20017;-61
2021/07/29 13:17:39;;;;;;;18.92;11.73;;;;;;;;;;5051350;28;20385;-63
2021/07/29 13:20:06;;;;;;;17.75;12.13;;;;;;;;;;5051582;28;20360;-59
2021/07/29 13:22:32;;;;;;;20.42;12.45;;;;;;;;;;5051262;28;20028;-64
2021/07/29 13:24:58;;;;;;;19.88;12.30;;;;;;;;;;5050998;28;20028;-64
2021/07/29 13:27:26;;;;;;;19.15;12.27;;;;;;;;;;5050782;28;20036;-62
2021/07/29 13:29:52;;;;;;;17.25;12.20;;;;;;;;;;5051027;28;20114;-63
2021/07/29 13:32:18;;;;;;;19.33;12.15;;;;;;;;;;5050843;28;20024;-59
2021/07/29 13:34:45;;;;;;;28.00;13.27;;;;;;;;;;5050305;28;20020;-62
2021/07/29 13:37:11;;;;;;;19.25;12.70;;;;;;;;;;5050688;28;20397;-64
2021/07/29 13:39:38;;;;;;;16.95;11.95;;;;;;;;;;5050818;28;20052;-64
2021/07/29 13:42:04;;;;;;;19.58;12.60;;;;;;;;;;5051011;28;20100;-61
2021/07/29 13:44:30;;;;;;;19.63;12.32;;;;;;;;;;5050885;28;20032;-62
2021/07/29 13:46:56;;;;;;;19.52;12.52;;;;;;;;;;5032094;28;20038;-62
2021/07/29 13:49:22;;;;;;;22.92;12.57;;;;;;;;;;5050211;28;20033;-62
2021/07/29 13:51:48;;;;;;;22.17;12.52;;;;;;;;;;5049909;28;20029;-62
2021/07/29 13:54:15;;;;;;;20.48;13.05;;;;;;;;;;5032387;28;20088;-57
2021/07/29 13:56:41;;;;;;;19.60;12.20;;;;;;;;;;5049498;28;20400;-64
2021/07/29 13:59:07;;;;;;;18.55;12.45;;;;;;;;;;5050840;28;20032;-58
2021/07/29 14:01:33;;;;;;;21.25;12.57;;;;;;;;;;5031974;28;20388;-62
2021/07/29 14:03:59;;;;;;;20.60;13.55;;;;;;;;;;5033132;28;20024;-63
2021/07/29 14:06:25;;;;;;;20.17;12.55;;;;;;;;;;5051419;28;20036;-64
2021/07/29 14:08:52;;;;;;;26.63;12.82;;;;;;;;;;5052224;28;20060;-65
2021/07/29 14:11:21;;;;;;;20.50;12.45;;;;;;;;;;5050320;28;20045;-63
2021/07/29 14:13:47;;;;;;;18.42;12.35;;;;;;;;;;5032814;28;20156;-63
2021/07/29 14:16:13;;;;;;;18.67;12.70;;;;;;;;;;5054387;28;20079;-63
2021/07/29 14:18:43;;;;;;;16.90;12.02;;;;;;;;;;5054256;28;20376;-63
2021/07/29 14:21:12;;;;;;;17.20;12.30;;;;;;;;;;5054019;28;20033;-63
2021/07/29 14:23:38;;;;;;;;;;;;;;;;;;5054762;28;20052;-64
2021/07/29 14:26:04;;;;;;;16.17;11.95;;;;;;;;;;5054374;28;19904;-65